Time;durP1;ratioP1;P1;durP2;ratioP2;P2;SDS_P1;SDS_P2;PMS_P1;PMS_P2;Temp;Humidity;BMP_temperature;BMP_pressure;BME280_temperature;BME280_humidity;BME280_pressure;Samples;Min_cycle;Max_cycle;Signal;HPM_P1;HPM_P2
2022/12/12 00:01:20;;;;;;;30.25;14.55;;;11.00;81.80;;;;;;5117175;28;20028;-79
2022/12/12 00:03:46;;;;;;;30.15;15.77;;;11.00;81.80;;;;;;5115230;28;20100;-77
2022/12/12 00:06:12;;;;;;;35.65;15.85;;;10.90;82.10;;;;;;5116587;28;20098;-77
2022/12/12 00:08:38;;;;;;;39.72;17.10;;;10.90;82.00;;;;;;5116537;28;20492;-77
2022/12/12 00:11:04;;;;;;;30.92;16.60;;;10.80;82.20;;;;;;5116544;28;20015;-77
2022/12/12 00:13:30;;;;;;;30.10;16.63;;;10.80;82.40;;;;;;5116417;28;20365;-78
2022/12/12 00:15:56;;;;;;;33.65;17.15;;;10.80;82.40;;;;;;5116063;28;20033;-77
2022/12/12 00:18:22;;;;;;;33.72;17.42;;;10.90;83.00;;;;;;5116414;28;20028;-77
2022/12/12 00:20:55;;;;;;;40.80;17.58;;;10.90;82.80;;;;;;5131896;27;20510;-77
2022/12/12 00:23:25;;;;;;;33.85;16.13;;;10.90;83.00;;;;;;5114616;28;20024;-77
2022/12/12 00:26:00;;;;;;;33.47;17.17;;;10.90;82.40;;;;;;5115843;28;20020;-77
2022/12/12 00:28:26;;;;;;;32.83;16.50;;;10.90;83.30;;;;;;5115951;28;20028;-77
2022/12/12 00:30:52;;;;;;;30.27;16.42;;;10.90;83.10;;;;;;5114718;28;20127;-77
2022/12/12 00:33:18;;;;;;;32.20;16.77;;;10.90;82.70;;;;;;5131888;27;20455;-76
2022/12/12 00:35:50;;;;;;;36.33;16.38;;;10.80;82.80;;;;;;5114229;28;20073;-79
2022/12/12 00:38:17;;;;;;;31.38;16.23;;;10.70;83.00;;;;;;5115567;28;20019;-77
2022/12/12 00:40:43;;;;;;;32.33;15.68;;;10.60;83.10;;;;;;5115847;28;20022;-77
2022/12/12 00:43:09;;;;;;;28.90;14.77;;;10.60;83.10;;;;;;5116027;28;20390;-79
2022/12/12 00:45:36;;;;;;;28.13;14.60;;;10.50;83.00;;;;;;5114530;28;20027;-79
2022/12/12 00:48:02;;;;;;;24.35;14.30;;;10.50;82.90;;;;;;5115801;28;20409;-77
2022/12/12 00:50:28;;;;;;;30.38;14.75;;;10.40;82.80;;;;;;5115336;28;20027;-78
2022/12/12 00:52:55;;;;;;;36.80;15.60;;;10.40;82.90;;;;;;5115367;28;20101;-76
2022/12/12 00:55:22;;;;;;;25.17;13.95;;;10.30;83.30;;;;;;5115385;28;20036;-76
2022/12/12 00:57:48;;;;;;;28.20;14.60;;;10.30;83.30;;;;;;5115452;28;20064;-78
2022/12/12 01:00:15;;;;;;;31.23;15.05;;;10.30;83.70;;;;;;5114753;28;20028;-78
2022/12/12 01:02:41;;;;;;;30.77;15.35;;;10.30;83.50;;;;;;5115316;28;20020;-76
2022/12/12 01:05:07;;;;;;;32.78;14.35;;;10.40;83.60;;;;;;5113959;28;20479;-78
2022/12/12 01:07:33;;;;;;;31.65;14.60;;;10.40;83.70;;;;;;5115267;28;20467;-76
2022/12/12 01:09:59;;;;;;;29.40;13.27;;;10.40;83.40;;;;;;5115371;28;20035;-77
2022/12/12 01:12:24;;;;;;;33.03;14.15;;;10.40;83.70;;;;;;5113801;28;20103;-77
2022/12/12 01:14:50;;;;;;;27.63;13.77;;;10.30;83.40;;;;;;5113939;28;20036;-78
2022/12/12 01:17:16;;;;;;;30.67;13.43;;;10.20;83.60;;;;;;5114216;28;20058;-77
2022/12/12 01:19:42;;;;;;;24.27;13.35;;;10.10;83.60;;;;;;5113945;28;20149;-76
2022/12/12 01:22:08;;;;;;;25.95;13.45;;;10.00;83.70;;;;;;5130618;27;20016;-77
2022/12/12 01:24:34;;;;;;;30.00;13.27;;;10.00;84.00;;;;;;5114877;28;20026;-77
2022/12/12 01:27:00;;;;;;;26.45;13.07;;;9.90;85.00;;;;;;5114999;28;20069;-78
2022/12/12 01:29:26;;;;;;;23.02;13.18;;;9.90;85.20;;;;;;5113621;28;20024;-76
2022/12/12 01:31:52;;;;;;;23.75;11.63;;;9.90;84.80;;;;;;5114811;28;20035;-77
2022/12/12 01:34:18;;;;;;;22.73;11.30;;;9.80;85.00;;;;;;5114550;28;20377;-77
2022/12/12 01:36:44;;;;;;;25.67;11.75;;;9.90;85.10;;;;;;5130791;27;20424;-76
2022/12/12 01:39:10;;;;;;;19.92;11.82;;;9.90;84.80;;;;;;5114931;28;20016;-77
2022/12/12 01:41:36;;;;;;;37.15;13.15;;;9.90;84.70;;;;;;5114682;28;20455;-77
2022/12/12 01:44:06;;;;;;;24.98;12.35;;;9.90;85.20;;;;;;5113231;28;20015;-77
2022/12/12 01:46:37;;;;;;;28.98;12.27;;;9.90;84.90;;;;;;5114222;28;20039;-76
2022/12/12 01:49:09;;;;;;;27.05;12.15;;;9.80;83.80;;;;;;5114354;28;20110;-78
2022/12/12 01:51:38;;;;;;;26.25;12.40;;;9.70;85.20;;;;;;5113251;28;20647;-77
2022/12/12 01:54:07;;;;;;;27.45;12.43;;;9.80;85.60;;;;;;5113927;28;20043;-78
2022/12/12 01:56:34;;;;;;;27.85;11.93;;;9.80;85.30;;;;;;5112726;28;20047;-78
2022/12/12 01:59:02;;;;;;;22.83;11.20;;;9.80;85.30;;;;;;5114212;28;20054;-77
2022/12/12 02:01:29;;;;;;;25.10;11.70;;;9.90;85.30;;;;;;5113042;28;20031;-77
2022/12/12 02:03:55;;;;;;;24.10;11.38;;;9.90;85.30;;;;;;5113050;28;20024;-77
2022/12/12 02:06:27;;;;;;;23.60;11.98;;;9.90;85.20;;;;;;5113208;28;20035;-77
2022/12/12 02:08:58;;;;;;;22.10;12.07;;;9.90;84.90;;;;;;5112626;28;20031;-78
2022/12/12 02:11:29;;;;;;;22.35;11.52;;;9.80;85.10;;;;;;5113059;28;20098;-77
2022/12/12 02:13:56;;;;;;;23.75;11.38;;;9.80;84.50;;;;;;5112559;28;20115;-79
2022/12/12 02:17:00;;;;;;;23.05;10.73;;;9.90;85.00;;;;;;5114122;28;20494;-76
2022/12/12 02:20:07;;;;;;;24.30;10.80;;;9.90;84.30;;;;;;5113852;28;20093;-78
2022/12/12 02:22:51;;;;;;;20.60;10.18;;;9.70;84.30;;;;;;5050940;28;20036;-78
2022/12/12 02:25:36;;;;;;;19.10;9.45;;;9.70;84.30;;;;;;5108612;28;20024;-78
2022/12/12 02:28:26;;;;;;;22.45;9.73;;;9.60;85.30;;;;;;5113880;28;20476;-76
2022/12/12 02:31:35;;;;;;;21.95;9.48;;;9.60;85.20;;;;;;5112286;28;20475;-77
2022/12/12 02:34:12;;;;;;;22.48;10.52;;;9.60;84.50;;;;;;5100629;28;20039;-78
2022/12/12 02:36:56;;;;;;;20.80;10.50;;;9.60;85.30;;;;;;5111981;28;20047;-78
2022/12/12 02:39:32;;;;;;;20.08;10.18;;;9.50;85.30;;;;;;5112187;28;20367;-76
2022/12/12 02:42:03;;;;;;;23.98;10.20;;;9.50;85.60;;;;;;5113399;28;20448;-76
2022/12/12 02:44:41;;;;;;;23.25;10.25;;;9.50;85.30;;;;;;5112122;28;20110;-77
2022/12/12 02:47:13;;;;;;;20.88;10.27;;;9.50;84.80;;;;;;5111820;28;20494;-78
2022/12/12 02:49:48;;;;;;;19.70;9.45;;;9.60;84.90;;;;;;5112033;28;20364;-77
2022/12/12 02:52:15;;;;;;;24.02;10.35;;;9.60;85.50;;;;;;5113270;28;20130;-77
2022/12/12 02:54:41;;;;;;;21.75;10.68;;;9.60;85.40;;;;;;5111667;28;20519;-79
2022/12/12 02:57:21;;;;;;;23.65;11.10;;;9.50;85.10;;;;;;5112075;28;20062;-75
2022/12/12 02:59:58;;;;;;;19.50;10.85;;;9.50;85.30;;;;;;5111946;28;20398;-77
2022/12/12 03:02:33;;;;;;;22.65;11.00;;;9.50;85.20;;;;;;5111880;28;20365;-77
2022/12/12 03:08:02;;;;;;;19.80;10.63;;;9.50;84.60;;;;;;5113264;28;20035;-77
2022/12/12 03:10:32;;;;;;;24.10;10.25;;;9.50;84.50;;;;;;5112114;28;20055;-77
2022/12/12 03:13:16;;;;;;;24.73;10.85;;;9.50;85.60;;;;;;5113071;28;20459;-79
2022/12/12 03:15:59;;;;;;;35.70;11.32;;;9.40;84.40;;;;;;5111800;28;20040;-78
2022/12/12 03:18:37;;;;;;;16.77;10.10;;;9.30;84.60;;;;;;5111453;28;20038;-77
2022/12/12 03:21:31;;;;;;;16.83;9.43;;;9.30;84.60;;;;;;5113039;28;20376;-76
2022/12/12 03:24:03;;;;;;;16.98;9.60;;;9.20;84.70;;;;;;5094225;28;20040;-78
2022/12/12 03:26:41;;;;;;;24.00;9.77;;;9.20;85.60;;;;;;5115943;28;20026;-77
2022/12/12 03:29:11;;;;;;;17.40;9.80;;;9.20;85.80;;;;;;5117145;28;20012;-77
2022/12/12 03:31:42;;;;;;;17.50;8.48;;;9.20;85.40;;;;;;5117081;28;20418;-76
2022/12/12 03:34:19;;;;;;;20.95;9.88;;;9.10;85.60;;;;;;5115754;28;20024;-77
2022/12/12 03:36:55;;;;;;;20.77;9.23;;;9.10;84.70;;;;;;5115813;28;20477;-77
2022/12/12 03:39:34;;;;;;;17.05;9.50;;;9.00;84.70;;;;;;5116843;28;20057;-76
2022/12/12 03:42:08;;;;;;;19.48;9.60;;;9.00;84.90;;;;;;5116033;28;20387;-76
2022/12/12 03:44:46;;;;;;;21.63;9.70;;;9.00;86.10;;;;;;5115500;28;20424;-76
2022/12/12 03:47:27;;;;;;;20.63;9.75;;;9.00;86.10;;;;;;5116729;28;20034;-77
2022/12/12 03:50:19;;;;;;;20.05;8.95;;;8.90;86.20;;;;;;5116679;28;20034;-78
2022/12/12 03:53:17;;;;;;;22.48;9.13;;;8.90;85.60;;;;;;5115311;28;20052;-77
2022/12/12 03:55:48;;;;;;;23.35;9.85;;;8.90;85.90;;;;;;5116454;28;20054;-76
2022/12/12 03:58:26;;;;;;;20.27;8.05;;;8.80;86.00;;;;;;5116578;28;20073;-77
2022/12/12 04:00:54;;;;;;;14.93;8.88;;;8.80;86.30;;;;;;5114966;28;20487;-77
2022/12/12 04:03:34;;;;;;;16.80;9.18;;;8.80;86.20;;;;;;5115249;28;20024;-77
2022/12/12 04:06:26;;;;;;;16.42;8.68;;;8.80;85.00;;;;;;5116601;28;20111;-78
2022/12/12 04:14:49;;;;;;;18.40;9.63;;;8.70;85.80;;;;;;5116215;28;20510;-78
2022/12/12 04:17:18;;;;;;;19.00;8.32;;;8.60;85.70;;;;;;5116470;28;20027;-78
2022/12/12 04:28:33;;;;;;;17.58;8.40;;;8.60;85.50;;;;;;5116434;28;20394;-77
2022/12/12 04:31:04;;;;;;;17.60;7.90;;;8.60;85.90;;;;;;5115193;28;20028;-77
2022/12/12 04:33:39;;;;;;;15.23;7.47;;;8.60;85.80;;;;;;5115169;28;20031;-76
2022/12/12 04:36:07;;;;;;;16.30;7.55;;;8.50;85.60;;;;;;5114607;28;20067;-76
2022/12/12 04:38:34;;;;;;;21.52;6.70;;;8.40;85.40;;;;;;5114447;28;20027;-76
2022/12/12 04:41:02;;;;;;;17.33;6.85;;;8.40;85.50;;;;;;5115961;28;20027;-78
2022/12/12 04:43:34;;;;;;;17.42;6.93;;;8.40;85.40;;;;;;5114608;28;20026;-77
2022/12/12 04:46:14;;;;;;;11.43;6.90;;;8.40;85.40;;;;;;5115652;28;20072;-77
2022/12/12 04:48:54;;;;;;;13.45;6.47;;;8.30;85.70;;;;;;5114405;28;20020;-78
2022/12/12 04:51:33;;;;;;;11.32;5.72;;;8.30;85.90;;;;;;5115825;28;20024;-78
2022/12/12 04:54:14;;;;;;;15.60;6.03;;;8.30;85.10;;;;;;5115406;28;20071;-76
2022/12/12 04:56:43;;;;;;;15.55;5.90;;;8.30;84.60;;;;;;5114205;28;20024;-76
2022/12/12 04:59:09;;;;;;;13.43;6.32;;;8.20;84.30;;;;;;5115417;28;20030;-75
2022/12/12 05:01:46;;;;;;;14.85;6.00;;;8.10;85.00;;;;;;5114034;28;20024;-77
2022/12/12 05:04:34;;;;;;;11.38;5.80;;;8.10;84.70;;;;;;5115401;28;20017;-76
2022/12/12 05:07:22;;;;;;;14.48;6.03;;;8.10;84.40;;;;;;5114079;28;20027;-76
2022/12/12 05:09:48;;;;;;;16.23;5.88;;;8.00;84.00;;;;;;5104254;28;20390;-76
2022/12/12 05:12:16;;;;;;;15.38;5.50;;;8.00;84.30;;;;;;5115399;28;20019;-76
2022/12/12 05:14:41;;;;;;;13.05;5.47;;;8.00;84.20;;;;;;5115210;28;20028;-77
2022/12/12 05:17:14;;;;;;;13.90;5.90;;;8.10;84.30;;;;;;5113664;28;20030;-76
2022/12/12 05:19:39;;;;;;;10.75;6.00;;;8.00;84.10;;;;;;5115282;28;20081;-77
2022/12/12 05:22:06;;;;;;;12.45;6.43;;;8.10;84.20;;;;;;5115017;28;20024;-78
2022/12/12 05:24:31;;;;;;;11.10;6.30;;;8.00;84.30;;;;;;5113683;28;20023;-78
2022/12/12 05:26:58;;;;;;;13.38;6.50;;;8.00;84.50;;;;;;5113608;28;20027;-77
2022/12/12 05:29:24;;;;;;;15.70;7.35;;;8.00;84.70;;;;;;5113646;28;20062;-78
2022/12/12 05:31:50;;;;;;;12.65;6.65;;;7.90;84.60;;;;;;5113339;28;20057;-76
2022/12/12 05:34:15;;;;;;;20.63;6.70;;;7.80;85.00;;;;;;5114895;28;20035;-77
2022/12/12 05:36:41;;;;;;;14.25;6.72;;;7.80;85.30;;;;;;5113477;28;20020;-76
2022/12/12 05:39:07;;;;;;;13.02;6.60;;;7.70;85.10;;;;;;5113557;28;20030;-76
2022/12/12 05:41:33;;;;;;;13.88;6.72;;;7.60;85.50;;;;;;5113368;28;20424;-77
2022/12/12 05:43:58;;;;;;;12.55;5.72;;;7.50;85.70;;;;;;5113324;28;20061;-77
2022/12/12 05:46:24;;;;;;;9.75;5.68;;;7.50;86.00;;;;;;5114261;28;20027;-77
2022/12/12 05:48:50;;;;;;;11.60;5.60;;;7.40;85.70;;;;;;5113367;28;20143;-74
2022/12/12 05:51:19;;;;;;;12.75;5.38;;;7.40;85.80;;;;;;5113095;28;20387;-77
2022/12/12 05:53:46;;;;;;;13.65;5.78;;;7.40;85.90;;;;;;5112790;28;20048;-77
2022/12/12 05:56:12;;;;;;;11.18;5.15;;;7.30;85.60;;;;;;5113150;28;20066;-77
2022/12/12 05:58:39;;;;;;;12.40;6.00;;;7.20;85.20;;;;;;5113686;28;20485;-78
2022/12/12 06:01:05;;;;;;;10.82;5.10;;;7.20;85.60;;;;;;5114362;28;20790;-78
2022/12/12 06:03:31;;;;;;;9.98;4.55;;;7.10;85.40;;;;;;5113093;28;20471;-78
2022/12/12 06:05:58;;;;;;;10.15;5.07;;;7.10;85.40;;;;;;5114343;28;20500;-77
2022/12/12 06:08:23;;;;;;;12.63;5.10;;;7.10;85.40;;;;;;5114052;28;20034;-75
2022/12/12 06:10:49;;;;;;;12.05;5.10;;;7.10;85.30;;;;;;5113072;28;20027;-78
2022/12/12 06:13:15;;;;;;;12.93;5.60;;;7.20;85.10;;;;;;5112814;28;20016;-76
2022/12/12 06:15:41;;;;;;;11.88;5.05;;;7.20;84.60;;;;;;5112402;28;20031;-76
2022/12/12 06:18:07;;;;;;;10.70;4.75;;;7.20;84.10;;;;;;5114189;28;20045;-78
2022/12/12 06:20:34;;;;;;;10.10;4.93;;;7.20;84.20;;;;;;5112564;28;20510;-78
2022/12/12 06:22:59;;;;;;;11.07;4.80;;;7.20;84.50;;;;;;5113820;28;20054;-77
2022/12/12 06:25:25;;;;;;;14.20;5.07;;;7.20;83.00;;;;;;5112158;28;20047;-79
2022/12/12 06:27:51;;;;;;;10.60;4.85;;;7.10;83.60;;;;;;5112461;28;20023;-78
2022/12/12 06:30:17;;;;;;;9.50;4.68;;;7.10;83.40;;;;;;5112309;28;20024;-78
2022/12/12 06:32:43;;;;;;;13.43;4.55;;;7.10;83.00;;;;;;5129318;27;20107;-77
2022/12/12 06:35:10;;;;;;;9.00;5.00;;;7.10;83.30;;;;;;5113649;28;20111;-75
2022/12/12 06:37:35;;;;;;;8.98;5.05;;;7.20;83.40;;;;;;5111962;28;20023;-77
2022/12/12 06:40:02;;;;;;;10.73;6.00;;;7.30;82.80;;;;;;5112200;28;20479;-76
2022/12/12 06:42:28;;;;;;;10.10;6.07;;;7.30;82.50;;;;;;5113140;28;20476;-79
2022/12/12 06:44:54;;;;;;;13.73;6.22;;;7.20;82.10;;;;;;5113230;28;20015;-77
2022/12/12 06:47:19;;;;;;;13.23;6.03;;;7.20;82.10;;;;;;5112234;28;20024;-78
2022/12/12 06:49:45;;;;;;;11.30;6.07;;;7.20;82.60;;;;;;5111921;28;20060;-78
2022/12/12 06:52:11;;;;;;;13.18;6.15;;;7.20;82.60;;;;;;5111687;28;20047;-77
2022/12/12 06:54:37;;;;;;;14.30;6.50;;;7.30;82.90;;;;;;5111972;28;20085;-77
2022/12/12 06:57:03;;;;;;;13.38;6.18;;;7.40;82.40;;;;;;5112581;28;20051;-78
2022/12/12 06:59:29;;;;;;;13.63;5.13;;;7.60;82.60;;;;;;5112972;28;20027;-76
2022/12/12 07:01:56;;;;;;;10.32;5.65;;;7.60;81.90;;;;;;5111861;28;20387;-76
2022/12/12 07:04:21;;;;;;;10.68;5.68;;;7.60;82.30;;;;;;5113260;28;20027;-77
2022/12/12 07:06:47;;;;;;;13.77;6.30;;;7.70;82.30;;;;;;5111719;28;20030;-78
2022/12/12 07:09:13;;;;;;;11.88;5.70;;;7.80;82.90;;;;;;5113132;28;20057;-78
2022/12/12 07:11:40;;;;;;;11.25;5.10;;;7.80;81.70;;;;;;5111565;28;20101;-78
2022/12/12 07:14:06;;;;;;;11.65;5.30;;;7.80;82.00;;;;;;5112902;28;20016;-78
2022/12/12 07:16:33;;;;;;;12.98;5.70;;;7.80;82.00;;;;;;5111650;28;20035;-78
2022/12/12 07:18:58;;;;;;;10.43;5.90;;;7.80;82.00;;;;;;5112841;28;20073;-79
2022/12/12 07:21:24;;;;;;;14.02;6.20;;;7.70;81.30;;;;;;5112815;28;20019;-79
2022/12/12 07:23:50;;;;;;;10.25;5.70;;;7.70;82.10;;;;;;5113078;28;20023;-78
2022/12/12 07:26:21;;;;;;;13.05;6.05;;;7.70;82.20;;;;;;5112925;28;20016;-79
2022/12/12 07:28:47;;;;;;;11.23;5.63;;;7.70;82.30;;;;;;5112811;28;20024;-78
2022/12/12 07:31:16;;;;;;;13.63;6.07;;;7.70;82.00;;;;;;5112683;28;20019;-78
2022/12/12 07:33:42;;;;;;;13.13;5.50;;;7.80;82.40;;;;;;5112840;28;20028;-78
2022/12/12 07:36:08;;;;;;;12.27;5.40;;;7.80;82.40;;;;;;5111342;28;20032;-78
2022/12/12 07:38:35;;;;;;;16.80;5.97;;;7.80;81.70;;;;;;5111546;28;20127;-76
2022/12/12 07:41:13;;;;;;;11.38;5.63;;;7.80;81.70;;;;;;5111489;28;20081;-78
2022/12/12 07:43:41;;;;;;;13.77;5.90;;;7.90;82.10;;;;;;5111620;28;20042;-77
2022/12/12 07:46:08;;;;;;;10.07;5.45;;;8.00;81.80;;;;;;5112586;28;20479;-78
2022/12/12 07:48:34;;;;;;;13.07;5.80;;;8.00;81.50;;;;;;5111811;28;20023;-77
2022/12/12 07:51:00;;;;;;;9.40;5.22;;;7.90;81.60;;;;;;5111319;28;20042;-78
2022/12/12 07:53:27;;;;;;;14.23;5.63;;;8.00;81.60;;;;;;5112513;28;20550;-76
2022/12/12 07:55:53;;;;;;;17.10;5.35;;;7.90;81.10;;;;;;5112083;28;20104;-76
2022/12/12 07:58:18;;;;;;;14.45;5.43;;;7.90;81.10;;;;;;5111190;28;20019;-78
2022/12/12 08:00:44;;;;;;;10.80;5.07;;;7.80;80.80;;;;;;5112546;28;20350;-78
2022/12/12 08:03:10;;;;;;;11.93;5.57;;;7.80;81.20;;;;;;5112295;28;20034;-76
2022/12/12 08:05:40;;;;;;;11.02;5.30;;;7.70;80.50;;;;;;5111310;28;20111;-78
2022/12/12 08:08:06;;;;;;;11.85;5.63;;;7.70;81.30;;;;;;5111801;28;20023;-78
2022/12/12 08:10:32;;;;;;;13.80;4.85;;;7.70;81.00;;;;;;5114896;28;20168;-78
2022/12/12 08:12:57;;;;;;;10.93;5.20;;;7.60;80.70;;;;;;5116233;28;20079;-76
2022/12/12 08:15:23;;;;;;;11.00;5.07;;;7.60;80.50;;;;;;5114756;28;20036;-75
2022/12/12 08:17:49;;;;;;;12.77;5.03;;;7.70;80.30;;;;;;5114565;28;20502;-77
2022/12/12 08:20:16;;;;;;;8.85;4.88;;;7.70;80.00;;;;;;5116226;28;20028;-78
2022/12/12 08:22:41;;;;;;;9.75;5.05;;;7.80;80.00;;;;;;5114725;28;20034;-76
2022/12/12 08:25:07;;;;;;;10.45;5.80;;;7.70;80.10;;;;;;5115870;28;20098;-78
2022/12/12 08:27:33;;;;;;;12.57;5.70;;;7.70;79.40;;;;;;5114582;28;20027;-77
2022/12/12 08:29:59;;;;;;;13.57;5.75;;;7.80;80.00;;;;;;5114386;28;20168;-78
2022/12/12 08:32:24;;;;;;;13.82;5.90;;;7.90;80.10;;;;;;5115847;28;20020;-78
2022/12/12 08:34:55;;;;;;;14.18;6.07;;;8.00;80.40;;;;;;5114292;28;20044;-78
2022/12/12 08:37:21;;;;;;;11.80;5.97;;;8.00;79.90;;;;;;5115353;28;20031;-77
2022/12/12 08:39:47;;;;;;;10.30;5.57;;;8.00;79.20;;;;;;5115641;28;20085;-77
2022/12/12 08:42:12;;;;;;;10.50;5.70;;;8.00;79.50;;;;;;5115666;28;20042;-78
2022/12/12 08:44:38;;;;;;;16.35;6.55;;;8.20;79.80;;;;;;5115247;28;20028;-76
2022/12/12 08:47:04;;;;;;;10.35;5.75;;;8.20;79.20;;;;;;5115378;28;20054;-78
2022/12/12 08:49:30;;;;;;;14.30;5.88;;;8.30;79.30;;;;;;5113798;28;20040;-78
2022/12/12 08:51:56;;;;;;;11.95;5.40;;;8.30;78.50;;;;;;5115083;28;20050;-78
2022/12/12 08:54:21;;;;;;;12.05;4.55;;;8.20;77.70;;;;;;5115117;28;20034;-77
2022/12/12 08:56:47;;;;;;;21.67;5.20;;;8.10;77.50;;;;;;5113915;28;20024;-78
2022/12/12 08:59:13;;;;;;;14.32;5.07;;;8.10;77.20;;;;;;5115613;28;20023;-77
2022/12/12 09:01:39;;;;;;;10.82;5.40;;;8.20;77.50;;;;;;5114447;28;20020;-76
2022/12/12 09:04:05;;;;;;;18.25;5.85;;;8.20;77.50;;;;;;5115063;28;20059;-79
2022/12/12 09:06:31;;;;;;;15.10;4.95;;;8.30;77.20;;;;;;5114273;28;20028;-77
2022/12/12 09:08:56;;;;;;;9.98;4.70;;;8.40;77.00;;;;;;5114144;28;20019;-79
2022/12/12 09:11:23;;;;;;;9.68;5.30;;;8.50;76.80;;;;;;5114165;28;20125;-77
2022/12/12 09:13:49;;;;;;;18.30;5.82;;;8.60;76.20;;;;;;5115044;28;20028;-78
2022/12/12 09:16:15;;;;;;;17.45;4.85;;;8.60;76.30;;;;;;5115230;28;20035;-79
2022/12/12 09:18:41;;;;;;;14.38;5.68;;;8.70;76.10;;;;;;5114934;28;20090;-76
2022/12/12 09:21:07;;;;;;;13.95;5.75;;;8.80;75.90;;;;;;5112820;28;20119;-78
2022/12/12 09:23:33;;;;;;;13.32;5.13;;;9.00;76.00;;;;;;5113612;28;20540;-79
2022/12/12 09:26:04;;;;;;;11.23;5.10;;;9.00;75.10;;;;;;5115090;28;20032;-78
2022/12/12 09:28:29;;;;;;;16.00;5.20;;;9.10;75.20;;;;;;5096477;28;20020;-78
2022/12/12 09:30:55;;;;;;;10.10;5.00;;;9.20;74.40;;;;;;5113592;28;20035;-79
2022/12/12 09:33:21;;;;;;;12.52;4.75;;;9.30;73.70;;;;;;5114818;28;20020;-78
2022/12/12 09:35:55;;;;;;;14.98;4.88;;;9.30;73.70;;;;;;5113306;28;20126;-79
2022/12/12 09:38:22;;;;;;;;;;;9.40;73.40;;;;;;5115096;28;20133;-79
2022/12/12 09:40:52;;;;;;;12.70;4.80;;;9.50;72.20;;;;;;5113044;28;19915;-79
2022/12/12 09:43:21;;;;;;;11.35;4.22;;;9.60;73.40;;;;;;5114693;28;20417;-77
2022/12/12 09:45:47;;;;;;;15.60;4.97;;;9.70;73.00;;;;;;5112793;28;20031;-78
2022/12/12 09:48:39;;;;;;;18.23;4.90;;;9.70;72.60;;;;;;5113828;28;20149;-77
2022/12/12 09:51:05;;;;;;;11.63;4.00;;;9.80;73.20;;;;;;5112731;28;20020;-78
2022/12/12 09:53:31;;;;;;;16.70;4.80;;;9.80;71.80;;;;;;5114185;28;20148;-78
2022/12/12 09:55:57;;;;;;;18.83;4.13;;;9.80;71.40;;;;;;5114090;28;20523;-78
2022/12/12 09:58:41;;;;;;;9.07;4.28;;;9.90;70.90;;;;;;5114105;28;20027;-78
2022/12/12 10:01:45;;;;;;;9.18;4.00;;;9.90;70.90;;;;;;5112389;28;20528;-78
2022/12/12 10:04:23;;;;;;;9.57;3.80;;;10.00;70.50;;;;;;5112888;28;20063;-78
2022/12/12 10:07:15;;;;;;;9.07;3.70;;;10.10;69.90;;;;;;5113658;28;20463;-75
2022/12/12 10:10:02;;;;;;;14.18;4.28;;;10.20;69.90;;;;;;5089073;28;20074;-77
2022/12/12 10:12:28;;;;;;;8.38;4.03;;;10.40;69.90;;;;;;5113709;28;20024;-77
2022/12/12 10:15:00;;;;;;;13.25;4.68;;;10.40;68.70;;;;;;5113322;28;20402;-77
2022/12/12 10:17:33;;;;;;;14.02;4.45;;;10.50;68.10;;;;;;5113727;28;20020;-76
2022/12/12 10:20:03;;;;;;;14.07;4.10;;;10.60;67.40;;;;;;5113458;28;20508;-76
2022/12/12 10:23:01;;;;;;;13.77;4.60;;;10.70;67.60;;;;;;5112495;28;20079;-76
2022/12/12 10:25:45;;;;;;;9.07;4.13;;;10.80;67.30;;;;;;5099975;28;20032;-78
2022/12/12 10:28:19;;;;;;;8.48;3.70;;;10.80;67.10;;;;;;5113431;27;20019;-78
2022/12/12 10:31:00;;;;;;;7.75;3.80;;;10.80;66.20;;;;;;5112171;28;20106;-76
2022/12/12 10:33:38;;;;;;;7.72;3.60;;;10.80;65.30;;;;;;5112818;28;20061;-78
2022/12/12 10:36:51;;;;;;;9.50;4.28;;;10.90;66.00;;;;;;5113141;28;20040;-76
2022/12/12 10:39:48;;;;;;;9.65;3.90;;;11.00;65.60;;;;;;5113200;28;20476;-76
2022/12/12 10:42:21;;;;;;;10.55;4.00;;;11.10;65.70;;;;;;5113168;28;20027;-77
2022/12/12 10:45:06;;;;;;;9.68;4.10;;;11.20;64.80;;;;;;5111811;28;20031;-78
2022/12/12 10:47:33;;;;;;;10.52;4.07;;;11.30;64.70;;;;;;5113251;28;20051;-78
2022/12/12 10:50:14;;;;;;;15.07;5.47;;;11.40;63.90;;;;;;5111722;28;20030;-78
2022/12/12 10:52:40;;;;;;;11.45;3.42;;;11.40;64.30;;;;;;5112554;28;20051;-76
2022/12/12 10:55:52;;;;;;;7.55;3.53;;;11.50;63.60;;;;;;5111388;28;20101;-77
2022/12/12 10:58:23;;;;;;;5.45;3.22;;;11.60;63.10;;;;;;5113309;28;20070;-76
2022/12/12 11:00:49;;;;;;;7.85;3.47;;;11.60;61.40;;;;;;5112723;28;20024;-78
2022/12/12 11:03:51;;;;;;;6.68;3.25;;;11.60;61.20;;;;;;5111961;28;20498;-77
2022/12/12 11:06:39;;;;;;;7.68;3.45;;;11.70;61.30;;;;;;5050619;28;20025;-76
2022/12/12 11:09:19;;;;;;;9.48;2.90;;;11.80;60.60;;;;;;5107752;28;20130;-77
2022/12/12 11:12:10;;;;;;;8.30;3.33;;;11.80;60.30;;;;;;5111293;28;20061;-77
2022/12/12 11:14:46;;;;;;;9.65;2.92;;;11.90;59.50;;;;;;5111020;28;20032;-78
2022/12/12 11:17:26;;;;;;;7.72;2.88;;;11.90;59.20;;;;;;5113199;28;20030;-78
2022/12/12 11:19:53;;;;;;;9.88;3.97;;;12.00;59.80;;;;;;5112591;28;20020;-79
2022/12/12 11:22:20;;;;;;;6.53;2.50;;;12.00;58.00;;;;;;5111333;28;20137;-77
2022/12/12 11:24:48;;;;;;;7.20;2.75;;;12.10;57.80;;;;;;5111440;28;20023;-77
2022/12/12 11:27:22;;;;;;;6.53;2.75;;;12.20;57.90;;;;;;5112661;28;20020;-76
2022/12/12 11:29:54;;;;;;;9.35;3.33;;;12.20;57.70;;;;;;5111783;28;20062;-78
2022/12/12 11:32:24;;;;;;;7.75;3.10;;;12.30;57.80;;;;;;5111348;28;20028;-78
2022/12/12 11:34:54;;;;;;;7.38;2.72;;;12.30;57.60;;;;;;5112810;28;20040;-77
2022/12/12 11:37:23;;;;;;;10.75;3.00;;;12.40;57.40;;;;;;5112684;28;20387;-76
2022/12/12 11:39:50;;;;;;;7.72;3.20;;;12.50;57.80;;;;;;5111506;28;20032;-77
2022/12/12 11:42:28;;;;;;;9.63;3.30;;;12.60;57.70;;;;;;5113062;28;20043;-75
2022/12/12 11:45:18;;;;;;;9.60;2.83;;;12.70;56.90;;;;;;5116653;28;20033;-76
2022/12/12 11:47:45;;;;;;;8.98;3.20;;;12.70;56.30;;;;;;5116823;28;20090;-78
2022/12/12 11:50:20;;;;;;;13.35;3.45;;;12.70;56.20;;;;;;5116655;28;20475;-78
2022/12/12 11:52:47;;;;;;;10.57;3.60;;;12.80;56.60;;;;;;5114608;28;20124;-76
2022/12/12 11:55:15;;;;;;;7.85;3.40;;;12.90;56.10;;;;;;5115001;28;20181;-78
2022/12/12 11:57:56;;;;;;;7.55;3.08;;;13.00;56.10;;;;;;5115950;28;20430;-76
2022/12/12 12:00:23;;;;;;;6.18;3.45;;;13.00;55.90;;;;;;5114807;28;20036;-77
2022/12/12 12:03:04;;;;;;;9.10;3.03;;;13.10;55.50;;;;;;5114852;28;20483;-78
2022/12/12 12:05:51;;;;;;;6.10;3.15;;;13.10;54.90;;;;;;5114373;28;20112;-77
2022/12/12 12:08:34;;;;;;;9.98;3.28;;;13.10;54.60;;;;;;5114415;28;20027;-77
2022/12/12 12:11:15;;;;;;;7.70;2.85;;;13.10;55.10;;;;;;5116182;28;20073;-78
2022/12/12 12:14:44;;;;;;;5.30;2.65;;;13.20;55.20;;;;;;5116112;28;20028;-77
2022/12/12 12:17:25;;;;;;;6.72;2.83;;;13.30;54.20;;;;;;5053141;28;20614;-77
2022/12/12 12:20:11;;;;;;;5.57;2.38;;;13.30;53.20;;;;;;5036063;28;20128;-77
2022/12/12 12:22:42;;;;;;;4.15;2.40;;;13.40;53.00;;;;;;5096922;28;20368;-77
2022/12/12 12:25:20;;;;;;;7.43;2.92;;;13.40;52.40;;;;;;5115900;28;20138;-78
2022/12/12 12:27:57;;;;;;;7.45;4.00;;;13.50;52.50;;;;;;5114345;28;20036;-78
2022/12/12 12:30:27;;;;;;;7.40;3.53;;;13.60;52.50;;;;;;5115267;28;20455;-77
2022/12/12 12:33:14;;;;;;;7.00;3.60;;;13.60;52.60;;;;;;5115360;28;20020;-77
2022/12/12 12:36:01;;;;;;;7.75;3.03;;;13.70;52.60;;;;;;5115543;28;20024;-78
2022/12/12 12:38:50;;;;;;;9.00;2.20;;;13.80;51.50;;;;;;5115596;28;20309;-77
2022/12/12 12:41:40;;;;;;;5.68;2.42;;;13.80;49.40;;;;;;5115046;28;20452;-77
2022/12/12 12:44:30;;;;;;;5.43;2.50;;;13.80;48.60;;;;;;5114728;28;20442;-78
2022/12/12 12:47:24;;;;;;;5.30;2.65;;;13.90;46.90;;;;;;5113758;28;20110;-78
2022/12/12 12:49:53;;;;;;;5.45;2.83;;;13.90;48.90;;;;;;5115171;28;20024;-77
2022/12/12 12:52:38;;;;;;;4.00;2.17;;;14.00;46.40;;;;;;5113791;28;20113;-78
2022/12/12 12:55:13;;;;;;;11.25;2.67;;;14.00;48.20;;;;;;5114250;28;20050;-79
2022/12/12 12:57:43;;;;;;;6.25;2.60;;;14.10;45.60;;;;;;5114968;28;20545;-77
2022/12/12 13:00:29;;;;;;;7.85;3.35;;;14.10;44.90;;;;;;5114721;28;20075;-77
2022/12/12 13:03:17;;;;;;;8.75;2.63;;;14.10;45.00;;;;;;5113381;28;20378;-78
2022/12/12 13:05:56;;;;;;;6.15;2.70;;;14.10;46.10;;;;;;5113349;28;20023;-77
2022/12/12 13:08:31;;;;;;;4.70;1.90;;;14.10;44.70;;;;;;5114833;28;20059;-77
2022/12/12 13:11:11;;;;;;;5.45;2.30;;;14.10;45.50;;;;;;5114858;28;20031;-77
2022/12/12 13:13:42;;;;;;;7.80;2.55;;;14.20;44.90;;;;;;5114848;27;20028;-77
2022/12/12 13:16:15;;;;;;;6.15;2.17;;;14.20;44.70;;;;;;5113103;28;20062;-78
2022/12/12 13:18:44;;;;;;;6.63;2.78;;;14.20;45.10;;;;;;5115348;28;20055;-78
2022/12/12 13:21:39;;;;;;;4.32;1.90;;;14.30;44.90;;;;;;5114909;28;20023;-79
2022/12/12 13:24:13;;;;;;;7.07;2.47;;;14.30;45.30;;;;;;5113935;28;20115;-78
2022/12/12 13:26:45;;;;;;;4.70;2.33;;;14.30;45.00;;;;;;5114842;28;20051;-77